Madison, WI

5:31 PM CST on February 06, 2016 (GMT -0600)
Rolling Meadows | | Change Station
CLOSE
Current Station
Personal Weather Station
Location: Madison, WI
Elevation: 925 ft
Nearby Weather Stations

Elev 925 ft 43.09 °N, 89.30 °W | Updated 9 minutes ago

Overcast
Overcast
29.1 °F
Feels Like 26 °F
N
3.2
Wind Variable Wind from WSW

Today
High -- | Low -- °F
--% Chance of Precip.
Yesterday
High -- | Low -- °F
Precip. -- in
Pressure 30.14 in
Visibility 10.0 miles
Clouds Few 1600 ft
Scattered Clouds 25000 ft
Windchill 26 °F
Dew Point 28 °F
Humidity 95%
Rainfall 0.02 in
Snow Depth Not available.
7:07 AM 5:15 PM
Waning Crescent, 4% visible
METAR KMSN 062253Z 22004KT 10SM FEW016 SCT250 M01/M04 A3010 RMK AO2 SLP204 T10061039
Pressure 30.14 in
Visibility 10.0 miles
Clouds Few 1600 ft
Scattered Clouds 25000 ft
Windchill 26 °F
Dew Point 28 °F
Humidity 95%
Rainfall 0.02 in
Snow Depth Not available.
7:07 AM 5:15 PM
Waning Crescent, 4% visible
METAR KMSN 062253Z 22004KT 10SM FEW016 SCT250 M01/M04 A3010 RMK AO2 SLP204 T10061039

10-Day Weather Forecast

Almanac

Astronomy

Feb. 06, 2016 Rise Set
Actual Time
Civil Twilight
Nautical Twilight
Astronomical Twilight
Moon
Length of Visible Light
Length of Day
Tomorrow will be .
, % of the Moon is Illuminated

Today's Extremes

State Highs State Lows

Community

WunderPhotos

Upload Photos

1,891,098 photos uploaded!

WunderBlog® & News

Nearby

Air Quality

  Air Quality AQ Index Pollutant
Not available.

Snow Depth

Station Depth Elevation

Earthquake Activity

City Distance Mag. Time & Date
Minimum magnitude displayed is 2.5.

Coastal Water Temperatures

Place Temperature

Stations

Nearby Weather Stations

Station Location Temp. Windchill Dew Point Humidity Wind Precip. Elev Updated Type
                   

Watches & Warnings

There are currently no watches in effect.